.
WxDataArchive / Data Records for 2016-02-27
2016-02-26 February 2016 2016-02-28

Data Records for Saturday, 27 February 2016

Time	Temp	Chill	HIndex	Humid	Dewpt	 Wind 	HiWind	WindDir	Rain 	Barom
-----	----	-----	------	-----	-----	------	------	-------	-----	-----
00:00	30.0	30.0	30.0	66	20.0	0	1	270	0.00	30.152 
00:05	30.0	30.0	30.0	66	20.0	0	3	270	0.00	30.152 
00:10	30.0	30.0	30.0	66	20.0	0	2	270	0.00	30.152 
00:15	30.1	30.1	30.1	66	20.1	0	2	270	0.00	30.145 
00:20	30.1	30.1	30.1	67	20.5	0	1	270	0.00	30.145 
00:25	30.1	30.1	30.1	67	20.5	0	1	270	0.00	30.145 
00:30	30.1	30.1	30.1	67	20.5	0	2	270	0.00	30.139 
00:35	30.1	30.1	30.1	67	20.5	0	2	270	0.00	30.139 
00:40	30.1	30.1	30.1	67	20.5	0	1	270	0.00	30.139 
00:45	30.1	30.1	30.1	67	20.5	0	1	270	0.00	30.135 
00:50	30.1	30.1	30.1	68	20.8	0	2	270	0.00	30.135 
00:55	30.1	30.1	30.1	68	20.8	0	1	270	0.00	30.135 
01:00	30.1	30.1	30.1	68	20.8	0	2	270	0.00	30.135 
01:05	30.1	30.1	30.1	68	20.8	0	2	270	0.00	30.135 
01:10	30.1	30.1	30.1	68	20.8	0	0	---	0.00	30.135 
01:15	30.1	30.1	30.1	68	20.8	0	1	270	0.00	30.135 
01:20	30.1	30.1	30.1	68	20.8	0	2	270	0.00	30.135 
01:25	30.3	30.3	30.3	68	21.0	0	2	270	0.00	30.135 
01:30	30.3	30.3	30.3	68	21.0	0	1	270	0.00	30.134 
01:35	30.3	30.3	30.3	68	21.0	0	1	270	0.00	30.134 
01:40	30.3	30.3	30.3	68	21.0	0	1	270	0.00	30.134 
01:45	30.3	30.3	30.3	69	21.4	0	2	270	0.00	30.132 
01:50	30.3	30.3	30.3	69	21.4	0	1	270	0.00	30.132 
01:55	30.3	30.3	30.3	69	21.4	0	2	270	0.00	30.132 
02:00	30.3	30.3	30.3	69	21.4	0	1	270	0.00	30.135 
02:05	30.3	30.3	30.3	69	21.4	0	1	270	0.00	30.135 
02:10	30.3	30.3	30.3	69	21.4	0	2	270	0.00	30.135 
02:15	30.3	30.3	30.3	69	21.4	0	4	270	0.00	30.132 
02:20	30.3	30.3	30.3	69	21.4	0	2	270	0.00	30.132 
02:25	30.3	30.3	30.3	69	21.4	0	1	270	0.00	30.132 
02:30	30.3	30.3	30.3	69	21.4	0	1	270	0.00	30.130 
02:35	30.3	30.3	30.3	70	21.7	0	1	270	0.00	30.130 
02:40	30.1	30.1	30.1	70	21.5	0	1	270	0.00	30.130 
02:45	30.1	30.1	30.1	70	21.5	0	2	270	0.00	30.120 
02:50	30.1	30.1	30.1	70	21.5	0	1	270	0.00	30.120 
02:55	30.1	30.1	30.1	70	21.5	0	1	270	0.00	30.120 
03:00	30.1	30.1	30.1	70	21.5	0	1	270	0.00	30.118 
03:05	30.1	30.1	30.1	70	21.5	0	1	270	0.00	30.118 
03:10	30.1	30.1	30.1	70	21.5	0	1	270	0.00	30.118 
03:15	30.1	30.1	30.1	70	21.5	0	1	270	0.00	30.109 
03:20	30.1	30.1	30.1	70	21.5	0	1	270	0.00	30.109 
03:25	30.1	30.1	30.1	70	21.5	0	1	270	0.00	30.109 
03:30	30.1	30.1	30.1	70	21.5	0	1	270	0.00	30.109 
03:35	30.1	30.1	30.1	71	21.9	0	1	270	0.00	30.109 
03:40	30.1	30.1	30.1	71	21.9	0	2	270	0.00	30.109 
03:45	30.1	30.1	30.1	71	21.9	0	2	270	0.00	30.106 
03:50	30.1	30.1	30.1	71	21.9	0	2	270	0.00	30.106 
03:55	30.1	30.1	30.1	71	21.9	0	3	270	0.00	30.106 
04:00	30.1	30.1	30.1	70	21.5	0	2	248	0.00	30.104 
04:05	30.0	30.0	30.0	70	21.4	0	2	248	0.00	30.104 
04:10	30.0	30.0	30.0	70	21.4	0	2	248	0.00	30.104 
04:15	30.0	30.0	30.0	70	21.4	0	1	248	0.00	30.094 
04:20	29.8	29.8	29.8	71	21.6	0	3	248	0.00	30.094 
04:25	29.7	29.7	29.7	71	21.5	0	2	248	0.00	30.094 
04:30	29.7	29.7	29.7	71	21.5	0	3	248	0.00	30.091 
04:35	29.5	29.5	29.5	71	21.3	0	4	248	0.00	30.091 
04:40	29.5	29.5	29.5	71	21.3	0	1	248	0.00	30.091 
04:45	29.5	29.5	29.5	71	21.3	0	2	248	0.00	30.089 
04:50	29.4	29.4	29.4	71	21.2	0	1	248	0.00	30.089 
04:55	29.4	29.4	29.4	71	21.2	0	2	248	0.00	30.089 
05:00	29.4	29.4	29.4	71	21.2	0	2	248	0.00	30.089 
05:05	29.4	29.4	29.4	71	21.2	0	2	248	0.00	30.089 
05:10	29.3	29.3	29.3	71	21.1	0	2	248	0.00	30.089 
05:15	29.1	29.1	29.1	71	20.9	0	1	248	0.00	30.090 
05:20	29.0	29.0	29.0	72	21.1	0	1	248	0.00	30.090 
05:25	29.0	29.0	29.0	72	21.1	0	1	248	0.00	30.090 
05:30	28.8	28.8	28.8	73	21.3	0	1	248	0.00	30.086 
05:35	28.7	28.7	28.7	73	21.2	0	1	248	0.00	30.086 
05:40	28.5	28.5	28.5	73	21.0	0	1	248	0.00	30.086 
05:45	28.4	28.4	28.4	74	21.2	0	1	248	0.00	30.090 
05:50	28.4	28.4	28.4	74	21.2	0	0	---	0.00	30.090 
05:55	28.2	28.2	28.2	75	21.3	0	1	248	0.00	30.090 
06:00	28.1	28.1	28.1	75	21.2	0	1	248	0.00	30.091 
06:05	28.1	28.1	28.1	76	21.5	0	1	248	0.00	30.091 
06:10	27.9	27.9	27.9	76	21.3	0	2	248	0.00	30.091 
06:15	27.9	27.9	27.9	77	21.6	0	2	248	0.00	30.092 
06:20	27.8	27.8	27.8	77	21.5	0	1	248	0.00	30.092 
06:25	27.8	27.8	27.8	77	21.5	0	1	248	0.00	30.092 
06:30	27.8	27.8	27.8	77	21.5	0	0	---	0.00	30.092 
06:35	27.6	27.6	27.6	77	21.4	0	1	248	0.00	30.092 
06:40	27.5	27.5	27.5	78	21.6	0	1	248	0.00	30.092 
06:45	27.5	27.5	27.5	78	21.6	0	1	248	0.00	30.091 
06:50	27.3	27.3	27.3	78	21.4	0	1	248	0.00	30.091 
06:55	27.3	27.3	27.3	79	21.7	0	1	248	0.00	30.091 
07:00	27.3	27.3	27.3	79	21.7	0	1	248	0.00	30.091 
07:05	27.3	27.3	27.3	79	21.7	0	1	248	0.00	30.091 
07:10	27.3	27.3	27.3	80	22.0	0	1	248	0.00	30.091 
07:15	27.3	27.3	27.3	80	22.0	0	1	248	0.00	30.089 
07:20	27.3	27.3	27.3	80	22.0	0	2	248	0.00	30.089 
07:25	27.3	27.3	27.3	80	22.0	0	2	248	0.00	30.089 
07:30	27.3	27.3	27.3	81	22.3	0	1	248	0.00	30.079 
07:35	27.3	27.3	27.3	81	22.3	0	2	248	0.00	30.079 
07:40	27.3	27.3	27.3	81	22.3	0	2	248	0.00	30.079 
07:45	27.5	27.5	27.5	81	22.4	0	3	248	0.00	30.076 
07:50	27.6	27.6	27.6	81	22.5	0	3	248	0.00	30.076 
07:55	27.6	27.6	27.6	81	22.5	0	2	248	0.00	30.076 
08:00	27.9	27.9	27.9	81	22.8	1	4	248	0.00	30.076 
08:05	28.1	28.1	28.1	80	22.7	1	4	248	0.00	30.076 
08:10	28.4	28.4	28.4	79	22.7	0	4	248	0.00	30.076 
08:15	28.5	28.5	28.5	79	22.8	1	2	248	0.00	30.075 
08:20	28.8	28.8	28.8	78	22.8	0	3	248	0.00	30.075 
08:25	29.1	29.1	29.1	77	22.8	1	4	248	0.00	30.075 
08:30	29.4	29.4	29.4	77	23.1	1	5	248	0.00	30.075 
08:35	29.5	29.5	29.5	76	22.9	1	5	248	0.00	30.075 
08:40	30.0	30.0	30.0	76	23.4	2	5	248	0.00	30.075 
08:45	30.3	30.3	30.3	75	23.3	1	5	248	0.00	30.077 
08:50	30.7	30.7	30.7	74	23.4	1	7	248	0.00	30.077 
08:55	30.9	30.9	30.9	73	23.3	1	7	248	0.00	30.077 
09:00	31.2	31.2	31.2	72	23.2	2	9	248	0.00	30.073 
09:05	31.3	31.3	31.3	72	23.3	1	4	248	0.00	30.073 
09:10	31.6	31.6	31.6	72	23.6	1	4	248	0.00	30.073 
09:15	32.1	32.1	32.1	71	23.8	1	4	270	0.00	30.058 
09:20	32.5	32.5	32.5	70	23.8	2	5	248	0.00	30.058 
09:25	32.8	32.8	32.8	69	23.8	1	6	248	0.00	30.058 
09:30	33.1	33.1	33.1	69	24.1	1	5	270	0.00	30.063 
09:35	33.2	33.2	33.2	69	24.2	1	4	248	0.00	30.063 
09:40	33.7	33.7	33.7	68	24.3	1	4	248	0.00	30.063 
09:45	34.1	34.1	34.1	68	24.7	1	5	248	0.00	30.054 
09:50	34.3	34.3	34.3	67	24.5	1	3	270	0.00	30.054 
09:55	34.4	34.4	34.4	67	24.6	1	5	270	0.00	30.054 
10:00	34.7	34.7	34.7	66	24.5	1	5	248	0.00	30.053 
10:05	35.0	35.0	35.0	67	25.2	1	6	248	0.00	30.053 
10:10	35.6	35.6	35.6	67	25.7	1	3	248	0.00	30.053 
10:15	36.0	36.0	36.0	65	25.4	1	5	248	0.00	30.038 
10:20	36.5	36.5	36.5	65	25.9	1	4	270	0.00	30.038 
10:25	36.5	36.5	36.5	64	25.5	2	5	248	0.00	30.038 
10:30	36.6	36.6	36.6	64	25.6	2	6	270	0.00	30.036 
10:35	36.6	36.6	36.6	64	25.6	2	6	270	0.00	30.036 
10:40	36.9	36.9	36.9	65	26.3	1	6	248	0.00	30.036 
10:45	37.3	37.3	37.3	64	26.3	1	5	248	0.00	30.039 
10:50	37.5	37.5	37.5	63	26.1	1	6	248	0.00	30.039 
10:55	37.5	37.5	37.5	63	26.1	3	7	248	0.00	30.039 
11:00	37.6	37.6	37.6	64	26.5	2	7	248	0.00	30.023 
11:05	38.0	38.0	38.0	64	26.9	2	6	248	0.00	30.023 
11:10	38.5	38.5	38.5	64	27.4	2	5	248	0.00	30.023 
11:15	38.6	38.6	38.6	63	27.1	2	7	248	0.00	30.024 
11:20	39.1	39.1	39.1	62	27.2	3	9	248	0.00	30.024 
11:25	39.3	39.3	39.3	62	27.4	1	6	248	0.00	30.024 
11:30	39.5	39.5	39.5	62	27.6	2	10	248	0.00	30.029 
11:35	39.6	39.6	39.6	61	27.3	2	6	248	0.00	30.029 
11:40	39.8	39.8	39.8	62	27.9	2	6	270	0.00	30.029 
11:45	40.2	40.2	40.2	61	27.8	2	5	248	0.00	30.018 
11:50	40.6	40.6	40.6	60	27.8	2	9	248	0.00	30.018 
11:55	40.8	40.8	40.8	60	28.0	2	7	248	0.00	30.018 
12:00	41.1	41.1	41.1	60	28.3	3	9	248	0.00	30.016 
12:05	41.1	41.1	41.1	59	27.9	3	6	248	0.00	30.016 
12:10	41.2	41.2	41.2	59	28.0	3	7	248	0.00	30.016 
12:15	41.5	41.5	41.5	59	28.3	2	6	248	0.00	30.010 
12:20	41.8	41.8	41.8	59	28.5	2	10	248	0.00	30.010 
12:25	42.2	42.2	42.2	58	28.5	2	6	248	0.00	30.010 
12:30	42.5	42.5	42.5	58	28.8	3	7	248	0.00	29.999 
12:35	42.6	42.6	42.6	57	28.4	3	7	248	0.00	29.999 
12:40	42.9	42.9	42.9	58	29.2	2	5	248	0.00	29.999 
12:45	43.1	43.1	43.1	57	28.9	2	9	248	0.00	29.997 
12:50	43.3	43.3	43.3	57	29.1	2	6	248	0.00	29.997 
12:55	43.6	43.6	43.6	55	28.5	3	9	248	0.00	29.997 
13:00	43.8	43.8	43.8	56	29.1	2	7	248	0.00	29.986 
13:05	44.3	44.3	44.3	56	29.6	2	7	248	0.00	29.986 
13:10	44.8	44.8	44.8	56	30.1	1	4	248	0.00	29.986 
13:15	45.1	45.1	45.1	55	29.9	2	7	248	0.00	29.981 
13:20	45.4	45.4	45.4	56	30.6	1	5	225	0.00	29.981 
13:25	46.1	46.1	46.1	55	30.8	1	3	248	0.00	29.981 
13:30	46.2	46.2	46.2	53	30.0	2	7	248	0.00	29.972 
13:35	46.2	46.2	46.2	53	30.0	3	7	248	0.00	29.972 
13:40	46.4	46.4	46.4	54	30.7	2	6	248	0.00	29.972 
13:45	46.8	46.8	46.8	53	30.6	2	6	248	0.00	29.967 
13:50	47.1	47.1	47.1	52	30.4	1	4	248	0.00	29.967 
13:55	47.6	47.6	47.6	53	31.3	1	4	248	0.00	29.967 
14:00	47.7	47.7	47.7	49	29.5	3	6	248	0.00	29.964 
14:05	47.9	47.9	47.9	49	29.7	3	9	248	0.00	29.964 
14:10	47.9	47.9	47.9	49	29.7	3	6	248	0.00	29.964 
14:15	47.6	47.6	47.6	49	29.4	3	10	248	0.00	29.959 
14:20	47.3	47.3	47.3	50	29.6	2	6	248	0.00	29.959 
14:25	47.3	47.3	47.3	50	29.6	2	6	248	0.00	29.959 
14:30	47.6	47.6	47.6	50	29.9	3	6	248	0.00	29.951 
14:35	47.9	47.9	47.9	51	30.7	2	6	248	0.00	29.951 
14:40	48.2	48.2	48.2	49	29.9	3	9	248	0.00	29.951 
14:45	48.2	48.2	48.2	50	30.4	2	6	248	0.00	29.944 
14:50	48.2	48.2	48.2	50	30.4	3	9	248	0.00	29.944 
14:55	48.3	48.3	48.3	49	30.0	2	6	248	0.00	29.944 
15:00	48.5	48.5	48.5	49	30.2	2	6	248	0.00	29.929 
15:05	48.5	48.5	48.5	49	30.2	2	9	248	0.00	29.929 
15:10	48.8	48.8	48.8	49	30.5	3	9	248	0.00	29.929 
15:15	48.8	48.8	48.8	49	30.5	2	8	248	0.00	29.922 
15:20	48.8	48.8	48.8	49	30.5	2	6	248	0.00	29.922 
15:25	48.9	48.9	48.9	50	31.1	1	4	248	0.00	29.922 
15:30	49.2	49.2	49.2	49	30.9	2	4	248	0.00	29.919 
15:35	49.4	49.4	49.4	49	31.0	2	6	248	0.00	29.919 
15:40	49.6	49.6	49.6	49	31.2	1	5	248	0.00	29.919 
15:45	49.8	49.8	49.8	49	31.4	1	4	248	0.00	29.912 
15:50	49.9	49.9	49.9	49	31.5	1	5	248	0.00	29.912 
15:55	49.8	49.8	49.8	48	30.9	2	10	248	0.00	29.912 
16:00	49.8	49.8	49.8	48	30.9	2	6	248	0.00	29.902 
16:05	49.8	49.8	49.8	49	31.4	2	5	248	0.00	29.902 
16:10	49.8	49.8	49.8	49	31.4	2	7	248	0.00	29.902 
16:15	49.8	49.8	49.8	51	32.4	1	6	248	0.00	29.900 
16:20	49.9	49.9	49.9	52	33.0	2	5	248	0.00	29.900 
16:25	50.1	50.1	50.1	51	32.7	1	5	248	0.00	29.900 
16:30	50.4	50.4	50.4	50	32.5	1	5	270	0.00	29.900 
16:35	50.4	50.4	50.4	51	33.0	2	6	225	0.00	29.900 
16:40	50.4	50.4	50.4	50	32.5	1	4	248	0.00	29.900 
16:45	50.5	50.5	50.5	50	32.6	2	7	248	0.00	29.898 
16:50	50.4	50.4	50.4	51	33.0	2	4	248	0.00	29.898 
16:55	50.2	50.2	50.2	51	32.8	1	4	248	0.00	29.898 
17:00	50.2	50.2	50.2	51	32.8	2	5	248	0.00	29.904 
17:05	50.2	50.2	50.2	52	33.3	2	7	248	0.00	29.904 
17:10	50.2	50.2	50.2	51	32.8	1	6	248	0.00	29.904 
17:15	50.4	50.4	50.4	51	33.0	1	5	248	0.00	29.911 
17:20	50.4	50.4	50.4	51	33.0	1	4	248	0.00	29.911 
17:25	50.4	50.4	50.4	50	32.5	1	6	270	0.00	29.911 
17:30	50.5	50.5	50.5	50	32.6	2	5	248	0.00	29.915 
17:35	50.5	50.5	50.5	49	32.1	2	6	270	0.00	29.915 
17:40	50.5	50.5	50.5	49	32.1	1	7	248	0.00	29.915 
17:45	50.5	50.5	50.5	48	31.5	1	6	248	0.00	29.914 
17:50	50.4	50.4	50.4	48	31.5	1	4	248	0.00	29.914 
17:55	50.2	50.2	50.2	48	31.3	1	5	248	0.00	29.914 
18:00	50.1	50.1	50.1	48	31.2	2	5	248	0.00	29.911 
18:05	49.9	49.9	49.9	49	31.5	1	5	248	0.00	29.911 
18:10	49.6	49.6	49.6	50	31.7	1	7	248	0.00	29.911 
18:15	49.5	49.5	49.5	50	31.6	1	11	248	0.00	29.902 
18:20	49.2	49.2	49.2	51	31.9	1	3	248	0.00	29.902 
18:25	48.9	48.9	48.9	52	32.1	0	2	248	0.00	29.902 
18:30	48.8	48.8	48.8	52	32.0	1	5	248	0.00	29.898 
18:35	48.5	48.5	48.5	53	32.2	1	3	270	0.00	29.898 
18:40	48.3	48.3	48.3	53	32.0	1	5	270	0.00	29.898 
18:45	48.3	48.3	48.3	53	32.0	1	4	248	0.00	29.900 
18:50	48.0	48.0	48.0	54	32.2	1	3	248	0.00	29.900 
18:55	48.0	48.0	48.0	54	32.2	1	5	248	0.00	29.900 
19:00	47.9	47.9	47.9	55	32.5	0	2	248	0.00	29.905 
19:05	47.6	47.6	47.6	55	32.2	1	3	248	0.00	29.905 
19:10	47.4	47.4	47.4	56	32.5	0	1	248	0.00	29.905 
19:15	47.3	47.3	47.3	57	32.8	0	2	248	0.00	29.905 
19:20	47.0	47.0	47.0	57	32.6	1	4	248	0.00	29.905 
19:25	46.8	46.8	46.8	58	32.8	0	2	248	0.00	29.905 
19:30	46.5	46.5	46.5	58	32.5	0	1	248	0.00	29.913 
19:35	46.4	46.4	46.4	59	32.9	0	3	248	0.00	29.913 
19:40	46.2	46.2	46.2	60	33.1	0	2	248	0.00	29.913 
19:45	46.1	46.1	46.1	60	33.0	0	3	248	0.00	29.909 
19:50	46.1	46.1	46.1	60	33.0	0	2	248	0.00	29.909 
19:55	46.0	46.0	46.0	61	33.3	0	4	248	0.00	29.909 
20:00	45.8	45.8	45.8	61	33.1	0	2	248	0.00	29.902 
20:05	45.7	45.7	45.7	61	33.0	0	2	248	0.00	29.902 
20:10	45.7	45.7	45.7	61	33.0	0	2	248	0.00	29.902 
20:15	45.5	45.5	45.5	61	32.8	0	2	248	0.00	29.899 
20:20	45.4	45.4	45.4	62	33.2	1	3	248	0.00	29.899 
20:25	45.4	45.4	45.4	62	33.2	0	4	248	0.00	29.899 
20:30	45.2	45.2	45.2	62	33.0	0	2	248	0.00	29.900 
20:35	45.2	45.2	45.2	62	33.0	0	2	248	0.00	29.900 
20:40	45.1	45.1	45.1	62	32.9	0	3	248	0.00	29.900 
20:45	45.1	45.1	45.1	62	32.9	0	3	248	0.00	29.896 
20:50	45.1	45.1	45.1	62	32.9	1	4	248	0.00	29.896 
20:55	45.1	45.1	45.1	63	33.3	0	3	248	0.00	29.896 
21:00	44.9	44.9	44.9	63	33.1	0	2	248	0.00	29.897 
21:05	44.6	44.6	44.6	63	32.8	0	2	248	0.00	29.897 
21:10	44.6	44.6	44.6	64	33.2	0	3	248	0.00	29.897 
21:15	44.5	44.5	44.5	64	33.1	0	2	248	0.00	29.890 
21:20	44.3	44.3	44.3	64	32.9	0	2	248	0.00	29.890 
21:25	44.3	44.3	44.3	64	32.9	0	2	248	0.00	29.890 
21:30	44.2	44.2	44.2	64	32.8	0	1	248	0.00	29.890 
21:35	44.1	44.1	44.1	65	33.1	0	3	248	0.00	29.890 
21:40	44.1	44.1	44.1	65	33.1	0	3	248	0.00	29.890 
21:45	43.9	43.9	43.9	65	32.9	0	3	248	0.00	29.887 
21:50	43.8	43.8	43.8	65	32.8	1	3	248	0.00	29.887 
21:55	43.6	43.6	43.6	65	32.6	0	2	248	0.00	29.887 
22:00	43.5	43.5	43.5	66	32.9	0	2	248	0.00	29.885 
22:05	43.5	43.5	43.5	66	32.9	0	2	248	0.00	29.885 
22:10	43.3	43.3	43.3	66	32.7	0	3	248	0.00	29.885 
22:15	43.3	43.3	43.3	70	34.2	1	4	248	0.00	29.885 
22:20	43.3	43.3	43.3	66	32.7	0	2	248	0.00	29.885 
22:25	43.5	43.5	43.5	66	32.9	1	3	248	0.00	29.885 
22:30	43.5	43.5	43.5	66	32.9	0	2	248	0.00	29.881 
22:35	43.5	43.5	43.5	66	32.9	0	3	248	0.00	29.881 
22:40	43.5	43.5	43.5	66	32.9	1	3	248	0.00	29.881 
22:45	43.5	43.5	43.5	66	32.9	0	2	248	0.00	29.880 
22:50	43.3	43.3	43.3	67	33.1	0	3	248	0.00	29.880 
22:55	43.3	43.3	43.3	67	33.1	0	2	248	0.00	29.880 
23:00	43.2	43.2	43.2	67	33.0	0	1	248	0.00	29.881 
23:05	43.1	43.1	43.1	67	32.9	0	2	248	0.00	29.881 
23:10	43.1	43.1	43.1	68	33.3	0	3	248	0.00	29.881 
23:15	43.1	43.1	43.1	68	33.3	0	3	248	0.00	29.877 
23:20	42.9	42.9	42.9	68	33.1	0	2	248	0.00	29.877 
23:25	42.8	42.8	42.8	68	33.0	0	2	248	0.00	29.877 
23:30	42.6	42.6	42.6	69	33.2	0	1	248	0.00	29.875 
23:35	42.6	42.6	42.6	69	33.2	0	2	248	0.00	29.875 
23:40	42.6	42.6	42.6	69	33.2	0	3	248	0.00	29.875 
23:45	42.6	42.6	42.6	69	33.2	0	3	248	0.00	29.872 
23:50	42.8	42.8	42.8	69	33.3	0	2	248	0.00	29.872 
23:55	42.6	42.6	42.6	69	33.2	0	1	248	0.00	29.872 

CoCoRaHS
IN-AL-39
A2 Web Hosting
Creative Commons License
GoDaddy
search engine by freefind advanced

loaded 2018-11-17 12:16:26 • last modified 2010-11-18 10:43:29
Privacy PolicyDisclaimer
• wx.awcolley.com is powered by PmWiki v.2002016 •
• all content (unless otherwise noted) © 2018 A W Colley